createdAt,value
2022-11-27T00:02:23.823Z,101786.78
2022-11-27T00:04:51.184Z,101783.25
2022-11-27T00:07:18.649Z,101779.16
2022-11-27T00:09:45.382Z,101776.09
2022-11-27T00:12:11.939Z,101772.66
2022-11-27T00:14:38.490Z,101774.56
2022-11-27T00:17:05.793Z,101773.28
2022-11-27T00:19:32.632Z,101772.84
2022-11-27T00:21:59.143Z,101779.13
2022-11-27T00:24:25.685Z,101760.41
2022-11-27T00:26:52.303Z,101755.31
2022-11-27T00:29:40.570Z,101752.91
2022-11-27T00:32:08.170Z,101748.88
2022-11-27T00:34:34.981Z,101747.84
2022-11-27T00:37:01.912Z,101742.81
2022-11-27T00:39:29.769Z,101755.00
2022-11-27T00:41:56.885Z,101744.28
2022-11-27T00:44:23.510Z,101757.94
2022-11-27T00:46:50.263Z,101747.09
2022-11-27T00:49:17.067Z,101745.00
2022-11-27T00:51:43.831Z,101755.44
2022-11-27T00:54:10.944Z,101753.56
2022-11-27T00:56:39.272Z,101743.31
2022-11-27T00:59:07.381Z,101748.75
2022-11-27T01:01:38.159Z,101754.38
2022-11-27T01:04:07.441Z,101756.66
2022-11-27T01:06:34.049Z,101750.22
2022-11-27T01:09:01.173Z,101752.22
2022-11-27T01:11:31.624Z,101738.69
2022-11-27T01:14:00.996Z,101742.81
2022-11-27T01:16:29.806Z,101732.19
2022-11-27T01:18:59.485Z,101725.97
2022-11-27T01:21:28.305Z,101724.03
2022-11-27T01:23:55.204Z,101718.66
2022-11-27T01:26:22.272Z,101719.94
2022-11-27T01:28:52.281Z,101723.44
2022-11-27T01:31:22.839Z,101724.75
2022-11-27T01:33:57.352Z,101726.44
2022-11-27T01:36:24.979Z,101715.78
2022-11-27T01:38:51.885Z,101722.75
2022-11-27T01:41:27.918Z,101710.78
2022-11-27T01:44:02.564Z,101712.28
2022-11-27T01:46:42.714Z,101714.50
2022-11-27T01:49:09.376Z,101716.78
2022-11-27T01:51:44.772Z,101720.25
2022-11-27T01:54:13.562Z,101708.69
2022-11-27T01:56:43.664Z,101714.03
2022-11-27T01:59:10.501Z,101714.19
2022-11-27T02:01:37.275Z,101715.06
2022-11-27T02:04:04.057Z,101712.63
2022-11-27T02:06:30.742Z,101709.56
2022-11-27T02:08:57.585Z,101711.47
2022-11-27T02:11:52.695Z,101707.03
2022-11-27T02:14:49.753Z,101694.66
2022-11-27T02:17:46.460Z,101689.44
2022-11-27T02:20:33.821Z,101692.50
2022-11-27T02:23:28.529Z,101694.00
2022-11-27T02:26:24.796Z,101702.84
2022-11-27T02:29:10.370Z,101691.41
2022-11-27T02:31:44.694Z,101695.56
2022-11-27T02:34:21.633Z,101694.75
2022-11-27T02:37:10.100Z,101686.63
2022-11-27T02:39:44.544Z,101670.13
2022-11-27T02:42:16.817Z,101671.97
2022-11-27T02:44:52.870Z,101674.59
2022-11-27T02:47:20.781Z,101677.09
2022-11-27T02:49:51.214Z,101685.00
2022-11-27T02:52:19.907Z,101678.31
2022-11-27T02:54:49.568Z,101675.66
2022-11-27T02:57:17.967Z,101670.31
2022-11-27T02:59:45.716Z,101659.78
2022-11-27T03:02:23.373Z,101661.66
2022-11-27T03:04:54.017Z,101671.75
2022-11-27T03:07:39.057Z,101684.75
2022-11-27T03:10:20.614Z,101674.72
2022-11-27T03:12:48.836Z,101675.50
2022-11-27T03:15:15.609Z,101676.91
2022-11-27T03:17:55.365Z,101670.00
2022-11-27T03:20:26.924Z,101665.59
2022-11-27T03:22:56.997Z,101667.88
2022-11-27T03:25:24.672Z,101663.75
2022-11-27T03:28:04.797Z,101659.47
2022-11-27T03:30:31.759Z,101665.94
2022-11-27T03:32:58.752Z,101660.25
2022-11-27T03:35:26.991Z,101666.13
2022-11-27T03:37:55.194Z,101667.31
2022-11-27T03:40:29.263Z,101663.44
2022-11-27T03:43:08.380Z,101662.03
2022-11-27T03:46:00.417Z,101661.13
2022-11-27T03:48:42.079Z,101661.03
2022-11-27T03:51:20.537Z,101655.28
2022-11-27T03:54:18.245Z,101659.13
2022-11-27T03:56:57.787Z,101651.94
2022-11-27T03:59:36.410Z,101651.97
2022-11-27T04:02:03.729Z,101647.06
2022-11-27T04:04:41.108Z,101641.75
2022-11-27T04:07:15.895Z,101631.50
2022-11-27T04:09:42.486Z,101625.03
2022-11-27T04:12:09.092Z,101625.78
2022-11-27T04:14:36.108Z,101624.56
2022-11-27T04:17:02.652Z,101628.75
2022-11-27T04:19:29.220Z,101615.25
2022-11-27T04:21:56.157Z,101628.59
2022-11-27T04:24:22.683Z,101627.66
2022-11-27T04:26:49.555Z,101623.09
2022-11-27T04:29:16.186Z,101627.78
2022-11-27T04:31:43.145Z,101642.19
2022-11-27T04:34:10.056Z,101628.38
2022-11-27T04:36:39.498Z,101626.88
2022-11-27T04:39:06.566Z,101626.88
2022-11-27T04:41:33.463Z,101630.28
2022-11-27T04:44:00.114Z,101622.84
2022-11-27T04:46:27.384Z,101624.75
2022-11-27T04:48:53.940Z,101624.78
2022-11-27T04:51:21.035Z,101619.81
2022-11-27T04:53:47.893Z,101608.72
2022-11-27T04:56:15.549Z,101608.22
2022-11-27T04:58:42.084Z,101604.84
2022-11-27T05:01:09.906Z,101588.22
2022-11-27T05:03:36.494Z,101585.16
2022-11-27T05:06:03.580Z,101582.91
2022-11-27T05:08:33.087Z,101563.81
2022-11-27T05:11:04.949Z,101573.44
2022-11-27T05:13:31.517Z,101562.44
2022-11-27T05:15:58.148Z,101558.41
2022-11-27T05:18:25.082Z,101544.06
2022-11-27T05:20:58.719Z,101540.41
2022-11-27T05:23:25.886Z,101539.16
2022-11-27T05:25:52.615Z,101531.63
2022-11-27T05:28:26.271Z,101532.28
2022-11-27T05:30:53.325Z,101525.28
2022-11-27T05:33:20.315Z,101522.16
2022-11-27T05:35:46.901Z,101520.00
2022-11-27T05:38:13.444Z,101515.53
2022-11-27T05:40:39.972Z,101518.84
2022-11-27T05:43:07.004Z,101518.84
2022-11-27T05:45:34.057Z,101523.25
2022-11-27T05:48:01.075Z,101531.44
2022-11-27T05:50:27.617Z,101539.72
2022-11-27T05:52:54.162Z,101543.00
2022-11-27T05:55:20.705Z,101541.91
2022-11-27T05:57:47.383Z,101540.22
2022-11-27T06:00:15.236Z,101537.22
2022-11-27T06:02:41.958Z,101524.97
2022-11-27T06:05:08.941Z,101527.16
2022-11-27T06:07:35.488Z,101520.31
2022-11-27T06:10:02.065Z,101518.28
2022-11-27T06:12:28.580Z,101521.31
2022-11-27T06:14:55.412Z,101529.25
2022-11-27T06:17:22.262Z,101525.22
2022-11-27T06:19:48.784Z,101522.56
2022-11-27T06:22:15.347Z,101517.16
2022-11-27T06:24:42.102Z,101519.81
2022-11-27T06:27:08.993Z,101526.16
2022-11-27T06:29:37.321Z,101521.63
2022-11-27T06:32:05.050Z,101524.97
2022-11-27T06:34:31.604Z,101526.66
2022-11-27T06:36:58.440Z,101514.72
2022-11-27T06:39:24.959Z,101517.28
2022-11-27T06:41:51.534Z,101521.19
2022-11-27T06:44:18.409Z,101517.78
2022-11-27T06:46:45.422Z,101518.72
2022-11-27T06:49:11.999Z,101516.81
2022-11-27T06:51:38.883Z,101520.16
2022-11-27T06:54:05.511Z,101511.44
2022-11-27T06:56:32.134Z,101514.72
2022-11-27T06:59:00.622Z,101504.72
2022-11-27T07:01:29.506Z,101501.53
2022-11-27T07:03:57.125Z,101505.31
2022-11-27T07:06:25.763Z,101486.91
2022-11-27T07:08:54.657Z,101489.72
2022-11-27T07:11:24.234Z,101486.19
2022-11-27T07:13:52.258Z,101486.25
2022-11-27T07:16:19.145Z,101475.72
2022-11-27T07:18:49.091Z,101484.19
2022-11-27T07:21:16.105Z,101478.56
2022-11-27T07:23:42.946Z,101477.69
2022-11-27T07:26:15.081Z,101480.13
2022-11-27T07:28:43.733Z,101474.84
2022-11-27T07:31:21.696Z,101467.81
2022-11-27T07:33:48.862Z,101476.84
2022-11-27T07:36:17.814Z,101480.16
2022-11-27T07:38:45.140Z,101480.34
2022-11-27T07:41:12.574Z,101482.41
2022-11-27T07:43:41.943Z,101488.03
2022-11-27T07:46:12.356Z,101488.09
2022-11-27T07:48:38.977Z,101488.19
2022-11-27T07:51:06.969Z,101489.19
2022-11-27T07:53:36.847Z,101480.72
2022-11-27T07:56:04.280Z,101478.06
2022-11-27T07:58:31.629Z,101470.03
2022-11-27T08:00:58.616Z,101468.84
2022-11-27T08:03:25.763Z,101461.38
2022-11-27T08:05:52.405Z,101461.75
2022-11-27T08:08:18.990Z,101462.78
2022-11-27T08:10:45.624Z,101457.03
2022-11-27T08:13:12.353Z,101465.38
2022-11-27T08:15:38.915Z,101460.84
2022-11-27T08:18:05.488Z,101467.72
2022-11-27T08:20:32.146Z,101467.16
2022-11-27T08:23:02.782Z,101470.59
2022-11-27T08:25:30.511Z,101464.91
2022-11-27T08:27:57.108Z,101456.50
2022-11-27T08:30:24.023Z,101453.66
2022-11-27T08:32:50.748Z,101456.41
2022-11-27T08:35:17.515Z,101457.34
2022-11-27T08:37:45.329Z,101451.00
2022-11-27T08:40:12.226Z,101454.91
2022-11-27T08:42:38.847Z,101451.56
2022-11-27T08:45:05.762Z,101449.91
2022-11-27T08:47:32.612Z,101448.66
2022-11-27T08:49:59.159Z,101456.53
2022-11-27T08:52:26.381Z,101444.59
2022-11-27T08:54:57.486Z,101456.97
2022-11-27T08:57:24.905Z,101438.09
2022-11-27T08:59:51.561Z,101437.88
2022-11-27T09:02:18.543Z,101443.75
2022-11-27T09:04:45.381Z,101435.47
2022-11-27T09:07:14.282Z,101427.19
2022-11-27T09:09:41.065Z,101411.75
2022-11-27T09:12:08.275Z,101419.81
2022-11-27T09:14:34.799Z,101411.19
2022-11-27T09:17:01.811Z,101411.00
2022-11-27T09:19:29.103Z,101405.31
2022-11-27T09:21:56.142Z,101404.47
2022-11-27T09:24:22.935Z,101403.25
2022-11-27T09:26:49.485Z,101413.22
2022-11-27T09:29:16.052Z,101405.97
2022-11-27T09:31:43.173Z,101399.59
2022-11-27T09:34:09.807Z,101395.75
2022-11-27T09:36:36.374Z,101390.19
2022-11-27T09:39:03.777Z,101382.50
2022-11-27T09:41:41.614Z,101385.38
2022-11-27T09:44:20.252Z,101391.16
2022-11-27T09:46:46.871Z,101383.38
2022-11-27T09:49:19.946Z,101378.38
2022-11-27T09:52:14.493Z,101383.53
2022-11-27T09:54:52.639Z,101388.16
2022-11-27T09:57:27.269Z,101377.94
2022-11-27T09:59:54.339Z,101375.03
2022-11-27T10:02:31.690Z,101381.16
2022-11-27T10:05:16.233Z,101369.63
2022-11-27T10:08:16.364Z,101365.06
2022-11-27T10:11:14.170Z,101365.47
2022-11-27T10:14:00.028Z,101366.22
2022-11-27T10:16:44.071Z,101356.41
2022-11-27T10:19:28.320Z,101356.13
2022-11-27T10:22:07.438Z,101353.69
2022-11-27T10:24:45.647Z,101349.41
2022-11-27T10:27:24.413Z,101349.34
2022-11-27T10:29:55.628Z,101339.97
2022-11-27T10:32:54.130Z,101345.56
2022-11-27T10:35:16.920Z,101350.09
2022-11-27T10:37:52.879Z,101341.72
2022-11-27T10:40:31.507Z,101338.72
2022-11-27T10:43:12.808Z,101340.81
2022-11-27T10:46:03.784Z,101346.97
2022-11-27T10:48:30.525Z,101343.00
2022-11-27T10:50:57.234Z,101338.25
2022-11-27T10:53:35.269Z,101332.16
2022-11-27T10:56:04.848Z,101333.25
2022-11-27T10:58:54.465Z,101331.72
2022-11-27T11:01:22.858Z,101332.56
2022-11-27T11:03:49.668Z,101338.63
2022-11-27T11:06:22.391Z,101347.78
2022-11-27T11:09:02.924Z,101348.06
2022-11-27T11:11:29.478Z,101351.22
2022-11-27T11:13:56.100Z,101338.72
2022-11-27T11:16:34.825Z,101331.09
2022-11-27T11:19:03.905Z,101319.16
2022-11-27T11:21:34.943Z,101315.88
2022-11-27T11:24:02.746Z,101311.63
2022-11-27T11:26:40.240Z,101321.06
2022-11-27T11:29:38.735Z,101309.44
2022-11-27T11:32:21.352Z,101305.84
2022-11-27T11:34:56.213Z,101304.47
2022-11-27T11:37:29.336Z,101303.28
2022-11-27T11:40:03.993Z,101299.59
2022-11-27T11:42:33.543Z,101301.88
2022-11-27T11:45:13.238Z,101289.31
2022-11-27T11:47:48.032Z,101286.66
2022-11-27T11:50:22.872Z,101289.00
2022-11-27T11:53:22.745Z,101279.44
2022-11-27T11:56:04.013Z,101268.44
2022-11-27T11:58:50.796Z,101272.09
2022-11-27T12:01:43.381Z,101269.56
2022-11-27T12:04:39.962Z,101273.38
2022-11-27T12:07:14.474Z,101275.16
2022-11-27T12:10:02.201Z,101266.84
2022-11-27T12:12:47.568Z,101256.53
2022-11-27T12:15:34.229Z,101248.66
2022-11-27T12:18:09.697Z,101238.97
2022-11-27T12:21:05.073Z,101230.09
2022-11-27T12:23:43.556Z,101225.78
2022-11-27T12:26:48.198Z,101221.03
2022-11-27T12:29:32.842Z,101226.94
2022-11-27T12:32:14.666Z,101225.03
2022-11-27T12:35:06.957Z,101220.09
2022-11-27T12:37:42.168Z,101213.41
2022-11-27T12:40:17.673Z,101203.38
2022-11-27T12:42:59.523Z,101209.75
2022-11-27T12:45:35.181Z,101201.88
2022-11-27T12:48:08.271Z,101194.94
2022-11-27T12:50:38.180Z,101195.13
2022-11-27T12:53:35.837Z,101183.84
2022-11-27T12:56:33.401Z,101186.69
2022-11-27T12:59:21.440Z,101181.31
2022-11-27T13:01:56.287Z,101183.59
2022-11-27T13:04:40.235Z,101174.09
2022-11-27T13:07:23.006Z,101175.38
2022-11-27T13:10:16.307Z,101176.44
2022-11-27T13:13:02.486Z,101180.09
2022-11-27T13:15:48.746Z,101170.16
2022-11-27T13:18:31.103Z,101175.75
2022-11-27T13:21:01.450Z,101162.91
2022-11-27T13:23:32.656Z,101159.81
2022-11-27T13:26:03.864Z,101161.03
2022-11-27T13:28:41.559Z,101159.59
2022-11-27T13:31:16.059Z,101150.97
2022-11-27T13:33:46.197Z,101147.66
2022-11-27T13:36:23.787Z,101142.50
2022-11-27T13:38:55.598Z,101149.00
2022-11-27T13:41:26.206Z,101137.38
2022-11-27T13:43:53.363Z,101138.09
2022-11-27T13:46:25.540Z,101139.41
2022-11-27T13:49:03.248Z,101136.44
2022-11-27T13:51:33.227Z,101127.41
2022-11-27T13:54:12.029Z,101132.06
2022-11-27T13:56:41.317Z,101123.81
2022-11-27T13:59:22.395Z,101120.41
2022-11-27T14:02:00.115Z,101118.50
2022-11-27T14:04:30.778Z,101124.31
2022-11-27T14:07:09.674Z,101115.72
2022-11-27T14:09:41.261Z,101113.88
2022-11-27T14:12:27.098Z,101110.75
2022-11-27T14:15:01.534Z,101105.78
2022-11-27T14:17:41.393Z,101110.63
2022-11-27T14:20:13.804Z,101093.28
2022-11-27T14:23:07.211Z,101104.06
2022-11-27T14:25:33.906Z,101090.16
2022-11-27T14:28:12.932Z,101092.66
2022-11-27T14:30:51.122Z,101092.06
2022-11-27T14:33:29.408Z,101088.56
2022-11-27T14:36:00.370Z,101090.72
2022-11-27T14:38:28.753Z,101086.59
2022-11-27T14:41:09.228Z,101082.38
2022-11-27T14:43:35.795Z,101077.03
2022-11-27T14:46:04.682Z,101080.41
2022-11-27T14:48:43.597Z,101070.47
2022-11-27T14:51:17.580Z,101063.22
2022-11-27T14:53:47.089Z,101061.72
2022-11-27T14:56:16.182Z,101060.81
2022-11-27T14:58:53.344Z,101052.31
2022-11-27T15:01:31.926Z,101049.91
2022-11-27T15:04:06.092Z,101046.91
2022-11-27T15:06:39.232Z,101041.91
2022-11-27T15:09:32.823Z,101029.19
2022-11-27T15:11:56.966Z,101035.63
2022-11-27T15:14:28.357Z,101030.75
2022-11-27T15:16:56.828Z,101032.72
2022-11-27T15:19:37.545Z,101018.09
2022-11-27T15:22:04.972Z,101016.53
2022-11-27T15:24:34.663Z,101014.44
2022-11-27T15:27:16.906Z,101015.84
2022-11-27T15:29:49.690Z,101005.47
2022-11-27T15:32:23.252Z,101008.75
2022-11-27T15:34:51.905Z,101000.91
2022-11-27T15:37:25.556Z,101002.31
2022-11-27T15:39:53.979Z,100996.34
2022-11-27T15:42:22.181Z,100993.50
2022-11-27T15:44:52.713Z,100989.34
2022-11-27T15:47:27.391Z,100989.09
2022-11-27T15:49:54.493Z,100988.34
2022-11-27T15:52:21.498Z,100985.69
2022-11-27T15:54:48.403Z,100988.66
2022-11-27T15:57:15.340Z,100983.94
2022-11-27T15:59:41.912Z,100979.75
2022-11-27T16:02:17.312Z,100982.00
2022-11-27T16:04:44.665Z,100980.88
2022-11-27T16:07:11.684Z,100977.78
2022-11-27T16:09:39.700Z,100972.25
2022-11-27T16:12:06.984Z,100963.88
2022-11-27T16:14:33.707Z,100975.41
2022-11-27T16:17:01.623Z,100969.69
2022-11-27T16:19:28.641Z,100972.34
2022-11-27T16:21:56.692Z,100971.59
2022-11-27T16:24:23.986Z,100962.19
2022-11-27T16:26:50.669Z,100969.69
2022-11-27T16:29:17.400Z,100970.28
2022-11-27T16:31:44.131Z,100975.41
2022-11-27T16:34:11.728Z,100979.09
2022-11-27T16:36:42.223Z,100971.88
2022-11-27T16:39:10.686Z,100975.78
2022-11-27T16:41:38.808Z,100969.97
2022-11-27T16:44:14.354Z,100961.34
2022-11-27T16:46:43.885Z,100954.72
2022-11-27T16:49:11.169Z,100957.22
2022-11-27T16:51:40.599Z,100938.41
2022-11-27T16:54:12.158Z,100929.69
2022-11-27T16:56:41.251Z,100917.09
2022-11-27T16:59:11.298Z,100924.09
2022-11-27T17:01:40.960Z,100903.53
2022-11-27T17:04:09.983Z,100906.03
2022-11-27T17:06:38.666Z,100909.28
2022-11-27T17:09:07.476Z,100914.47
2022-11-27T17:11:37.251Z,100905.84
2022-11-27T17:14:07.252Z,100898.31
2022-11-27T17:16:36.568Z,100906.97
2022-11-27T17:19:04.178Z,100899.09
2022-11-27T17:21:34.416Z,100902.63
2022-11-27T17:24:04.531Z,100885.78
2022-11-27T17:26:38.952Z,100890.38
2022-11-27T17:29:05.933Z,100872.66
2022-11-27T17:31:35.359Z,100875.06
2022-11-27T17:34:04.704Z,100887.28
2022-11-27T17:36:36.877Z,100891.41
2022-11-27T17:39:06.134Z,100891.56
2022-11-27T17:41:33.839Z,100878.41
2022-11-27T17:44:02.359Z,100878.88
2022-11-27T17:46:29.252Z,100882.72
2022-11-27T17:48:59.128Z,100876.06
2022-11-27T17:51:27.672Z,100869.91
2022-11-27T17:53:55.071Z,100864.34
2022-11-27T17:56:24.199Z,100865.94
2022-11-27T17:58:51.149Z,100872.69
2022-11-27T18:01:25.022Z,100850.78
2022-11-27T18:03:55.817Z,100845.47
2022-11-27T18:06:23.784Z,100852.13
2022-11-27T18:08:52.733Z,100836.75
2022-11-27T18:11:22.659Z,100826.50
2022-11-27T18:13:50.966Z,100832.53
2022-11-27T18:16:38.027Z,100834.00
2022-11-27T18:19:07.459Z,100830.94
2022-11-27T18:21:36.587Z,100838.41
2022-11-27T18:27:09.691Z,100837.50
2022-11-27T18:29:38.821Z,100814.25
2022-11-27T18:32:06.573Z,100822.22
2022-11-27T18:34:33.778Z,100814.00
2022-11-27T18:37:00.841Z,100809.38
2022-11-27T18:39:28.219Z,100811.31
2022-11-27T18:41:55.141Z,100806.28
2022-11-27T18:44:22.482Z,100804.94
2022-11-27T18:46:49.196Z,100806.41
2022-11-27T18:49:16.076Z,100822.59
2022-11-27T18:51:42.875Z,100807.44
2022-11-27T18:54:09.630Z,100801.91
2022-11-27T18:56:37.571Z,100804.94
2022-11-27T18:59:06.237Z,100804.69
2022-11-27T19:01:41.307Z,100796.84
2022-11-27T19:04:10.884Z,100797.19
2022-11-27T19:06:39.310Z,100794.63
2022-11-27T19:09:06.898Z,100787.59
2022-11-27T19:11:34.847Z,100790.59
2022-11-27T19:14:03.043Z,100780.03
2022-11-27T19:16:45.879Z,100790.78
2022-11-27T19:22:07.024Z,100784.84
2022-11-27T19:24:34.272Z,100785.06
2022-11-27T19:27:01.005Z,100786.22
2022-11-27T19:29:28.136Z,100784.25
2022-11-27T19:31:57.635Z,100781.81
2022-11-27T19:34:25.100Z,100774.03
2022-11-27T19:36:52.901Z,100774.59
2022-11-27T19:39:20.242Z,100769.16
2022-11-27T19:41:48.691Z,100769.00
2022-11-27T19:44:17.404Z,100764.75
2022-11-27T19:46:46.321Z,100757.91
2022-11-27T19:49:17.889Z,100750.19
2022-11-27T19:51:46.566Z,100753.91
2022-11-27T19:54:15.566Z,100751.59
2022-11-27T19:56:43.417Z,100747.75
2022-11-27T19:59:12.368Z,100752.69
2022-11-27T20:01:40.794Z,100737.34
2022-11-27T20:04:10.357Z,100734.16
2022-11-27T20:06:37.093Z,100723.69
2022-11-27T20:09:05.181Z,100733.97
2022-11-27T20:11:35.409Z,100730.81
2022-11-27T20:14:05.742Z,100734.06
2022-11-27T20:16:33.675Z,100737.16
2022-11-27T20:19:02.502Z,100725.34
2022-11-27T20:21:29.236Z,100727.34
2022-11-27T20:23:57.813Z,100719.69
2022-11-27T20:26:27.267Z,100716.63
2022-11-27T20:28:54.999Z,100716.38
2022-11-27T20:31:25.119Z,100727.28
2022-11-27T20:33:55.569Z,100722.78
2022-11-27T20:36:23.552Z,100721.72
2022-11-27T20:38:52.202Z,100709.84
2022-11-27T20:41:21.346Z,100712.19
2022-11-27T20:43:50.735Z,100711.81
2022-11-27T20:46:18.088Z,100719.19
2022-11-27T20:48:50.127Z,100721.19
2022-11-27T20:51:20.958Z,100727.28
2022-11-27T20:53:48.606Z,100719.66
2022-11-27T20:56:17.552Z,100713.00
2022-11-27T20:58:45.962Z,100699.94
2022-11-27T21:01:29.537Z,100689.66
2022-11-27T21:03:57.530Z,100691.47
2022-11-27T21:06:27.481Z,100693.66
2022-11-27T21:08:54.764Z,100698.81
2022-11-27T21:11:25.075Z,100686.31
2022-11-27T21:14:02.155Z,100684.28
2022-11-27T21:16:31.020Z,100678.66
2022-11-27T21:19:02.209Z,100677.69
2022-11-27T21:21:29.349Z,100672.44
2022-11-27T21:23:56.804Z,100663.09
2022-11-27T21:26:23.443Z,100668.28
2022-11-27T21:28:50.823Z,100672.97
2022-11-27T21:31:20.078Z,100661.94
2022-11-27T21:33:51.810Z,100656.53
2022-11-27T21:36:21.037Z,100659.44
2022-11-27T21:38:47.856Z,100666.94
2022-11-27T21:41:14.496Z,100663.09
2022-11-27T21:43:41.424Z,100659.50
2022-11-27T21:46:12.532Z,100659.91
2022-11-27T21:48:40.040Z,100654.78
2022-11-27T21:51:12.459Z,100639.97
2022-11-27T21:53:40.388Z,100641.44
2022-11-27T21:56:09.281Z,100645.25
2022-11-27T21:58:37.525Z,100644.38
2022-11-27T22:01:06.461Z,100651.28
2022-11-27T22:03:35.694Z,100649.16
2022-11-27T22:06:08.473Z,100654.00
2022-11-27T22:08:36.304Z,100647.25
2022-11-27T22:11:07.675Z,100627.75
2022-11-27T22:13:35.108Z,100620.50
2022-11-27T22:16:07.831Z,100623.59
2022-11-27T22:18:34.768Z,100627.19
2022-11-27T22:21:06.555Z,100621.41
2022-11-27T22:23:33.438Z,100614.72
2022-11-27T22:26:01.805Z,100632.03
2022-11-27T22:28:29.510Z,100623.59
2022-11-27T22:30:57.324Z,100622.78
2022-11-27T22:33:24.483Z,100619.47
2022-11-27T22:35:51.215Z,100616.63
2022-11-27T22:38:17.914Z,100616.38
2022-11-27T22:40:44.812Z,100626.09
2022-11-27T22:43:11.383Z,100615.16
2022-11-27T22:45:39.517Z,100610.28
2022-11-27T22:48:06.367Z,100600.63
2022-11-27T22:50:33.073Z,100605.19
2022-11-27T22:52:59.830Z,100598.03
2022-11-27T22:55:28.095Z,100605.50
2022-11-27T22:57:54.689Z,100598.81
2022-11-27T23:00:21.523Z,100591.56
2022-11-27T23:02:48.129Z,100585.75
2022-11-27T23:05:15.504Z,100585.78
2022-11-27T23:07:42.049Z,100586.06
2022-11-27T23:10:09.376Z,100584.19
2022-11-27T23:12:35.953Z,100569.16
2022-11-27T23:15:03.016Z,100571.69
2022-11-27T23:17:30.169Z,100570.03
2022-11-27T23:19:56.718Z,100566.88
2022-11-27T23:22:23.377Z,100577.94
2022-11-27T23:24:49.910Z,100563.00
2022-11-27T23:27:16.453Z,100564.59
2022-11-27T23:29:43.121Z,100546.72
2022-11-27T23:32:10.165Z,100546.84
2022-11-27T23:34:37.175Z,100557.38
2022-11-27T23:37:03.736Z,100539.34
2022-11-27T23:39:30.271Z,100531.75
2022-11-27T23:41:56.824Z,100530.19
2022-11-27T23:44:23.692Z,100524.03
2022-11-27T23:46:50.437Z,100526.53
2022-11-27T23:49:17.008Z,100522.31
2022-11-27T23:51:43.779Z,100524.72
2022-11-27T23:54:10.810Z,100509.41
2022-11-27T23:56:38.502Z,100515.50
2022-11-27T23:59:05.649Z,100509.56
